Aviation Digital Data Service (ADDS)

Output produced by METARs form (1813 UTC 03 July 2020)
found at http://aviationweather.gov/metar/data/
 
KEMT 031745Z 00000KT 10SM CLR 27/12 A3000
KPOC 031747Z 00000KT 10SM CLR 28/09 A3003
KFUL 031753Z 18005KT 10SM CLR 27/15 A3000 RMK AO2 SLP156 T02670150 10267 20167 50004
KBUR 031753Z AUTO VRB04KT 10SM CLR 27/12 A3001 RMK AO2 SLP149 T02670122 10267 20156 51002
KBUR 031739Z 0318/0418 VRB05KT P6SM SKC 
     FM032000 17008KT P6SM SKC 
     FM040400 13007KT P6SM SKC 
     FM040700 VRB05KT P6SM SKC
       
KONT 031753Z 00000KT 10SM CLR 29/05 A3001 RMK AO2 SLP148 T02890050 10289 20161 51003
KONT 031732Z 0318/0424 VRB04KT P6SM SKC 
     FM032200 25011KT P6SM SKC 
     FM040500 VRB04KT P6SM SKC 
     FM042000 25011KT P6SM SKC
       
KCNO 031753Z 00000KT 10SM CLR 30/09 A3002 RMK AO2 SLP160 T03000094 10300 20139 50002
KAJO 031756Z AUTO 31004KT 10SM CLR 28/13 A3001 RMK AO2 SLP156 6//// T02780128 10278 20117
KLGB 031753Z 20006KT 10SM CLR 24/14 A3001 RMK AO2 SLP160 T02390144 10250 20161 51004
KLGB 031739Z 0318/0418 VRB05KT P6SM SKC 
     FM032000 20007KT P6SM SKC 
     FM032300 29010KT P6SM SKC 
     FM040500 VRB03KT P6SM SKC 
     FM041000 VRB03KT P6SM OVC005 
     FM041700 25006KT P6SM OVC012
       
KTOA 031747Z 28011KT 10SM FEW010 22/17 A3002
KHHR 031753Z 25008KT 10SM CLR 22/15 A3002 RMK AO2 SLP165 T02170150 10217 20161 52006
KLAX 031753Z 26009KT 10SM FEW010 21/14 A3002 RMK AO2 SLP165 T02060144 10211 20161 51007 $
KLAX 031739Z 0318/0424 25007KT P6SM FEW010 
     FM031900 25012KT P6SM SKC 
     FM040400 26008KT P6SM SCT015 
     FM041200 VRB03KT P6SM OVC005 
     FM041700 25006KT P6SM OVC012 
     FM042000 26011KT P6SM SKC
       
KSMO 031751Z 24007KT 10SM CLR 21/15 A3002 RMK AO2 SLP164 T02060150 10211 20150 53006
KSMO 031739Z 0318/0418 VRB05KT P6SM SKC 
     FM032000 23008KT P6SM SKC 
     FM040300 VRB03KT P6SM SKC 
     FM040800 VRB03KT P6SM OVC007 
     FM041200 VRB03KT P6SM OVC005 
     FM041700 25006KT P6SM OVC012
       
KCMA 031755Z 24009KT 10SM CLR 24/14 A3001 RMK AO2 SLP172 T02440139 10244 20133 51003
KCMA 031739Z 0318/0418 VRB05KT P6SM SKC 
     FM031900 23010KT P6SM SKC 
     FM040300 23006KT P6SM SKC 
     FM040900 VRB03KT P6SM OVC007 
     FM041200 VRB03KT P6SM OVC005 
     FM041700 VRB05KT P6SM OVC012
       
KOXR 031751Z 28010KT 10SM CLR 19/14 A3002 RMK AO2 SLP166 T01940139 10194 20128 51006
KOXR 031739Z 0318/0418 VRB03KT P6SM SKC 
     FM031900 26012KT P6SM SKC 
     FM040400 26006KT P6SM SKC 
     FM040800 VRB03KT P6SM OVC007 
     FM041200 VRB03KT P6SM OVC005 
     FM041700 VRB05KT P6SM OVC012
       
KRAL 031753Z VRB03KT 10SM CLR 29/07 A3001 RMK AO2 SLP146 T02890067 10289 20150 50001
KRIV 031758Z AUTO 00000KT 10SM CLR 31/00 A3003 RMK AO2 SLP156 T03050000 10305 20096 50004
TAF KRIV 031209Z 0312/0418 VRB05KT 9999 SKC QNH2998INS 
     BECMG 0320/0321 31009KT 9999 SKC 510009 QNH2996INS 
     TEMPO 0321/0402 31012G18KT 
     BECMG 0404/0405 VRB04KT 9999 SKC QNH2999INS TX33/0322Z TN10/0313Z
       
KF70 031755Z AUTO 00000KT 10SM CLR 28/03 A3003 RMK AO1
KF70 031735Z AUTO 00000KT 10SM CLR 28/03 A3003 RMK AO1
KF70 031715Z AUTO 21003KT 10SM CLR 26/09 A3003 RMK AO1
KRNM 031753Z 30009KT 10SM CLR 29/12 A3002 RMK AO2 SLP152 T02890122 10289 20094 51003
KCRQ 031753Z AUTO 25007KT 10SM CLR 21/15 A3001 RMK AO2 SLP160 T02110150 10211 20150 51006
KCRQ 031732Z 0318/0418 25005KT P6SM SKC 
     FM032000 26008KT P6SM SKC 
     FM040300 VRB04KT P6SM FEW007 
     FM040900 VRB04KT P6SM BKN006 
     FM041600 VRB04KT P6SM FEW008
       
KOKB 031752Z AUTO 24008KT 6SM HZ CLR 23/17 A3001 RMK AO2 SLP161 T02330167 10239 20106 51004 $
KIZA 031755Z AUTO 22004KT 10SM CLR 22/11 A3002 RMK AO2
KIZA 031735Z AUTO 25004KT 10SM CLR 20/11 A3002 RMK AO2
KIZA 031715Z AUTO 26004KT 10SM CLR 18/12 A3002 RMK AO2